createdAt,value
2022-08-07T00:00:18.749Z,69.62
2022-08-07T00:02:47.856Z,69.42
2022-08-07T00:05:15.317Z,70.06
2022-08-07T00:07:42.476Z,69.60
2022-08-07T00:10:25.991Z,69.48
2022-08-07T00:12:59.816Z,69.70
2022-08-07T00:15:38.343Z,69.54
2022-08-07T00:18:19.686Z,69.36
2022-08-07T00:20:49.603Z,69.70
2022-08-07T00:23:17.838Z,69.35
2022-08-07T00:25:52.444Z,69.57
2022-08-07T00:28:33.764Z,69.58
2022-08-07T00:31:06.415Z,69.39
2022-08-07T00:33:41.290Z,69.68
2022-08-07T00:36:09.744Z,69.50
2022-08-07T00:38:39.025Z,69.26
2022-08-07T00:41:10.070Z,69.73
2022-08-07T00:44:00.916Z,69.57
2022-08-07T00:46:30.977Z,69.49
2022-08-07T00:49:03.297Z,69.34
2022-08-07T00:51:57.503Z,69.72
2022-08-07T00:54:19.955Z,69.31
2022-08-07T00:56:49.750Z,69.17
2022-08-07T00:59:32.323Z,68.99
2022-08-07T01:02:03.060Z,68.70
2022-08-07T01:04:37.458Z,68.58
2022-08-07T01:07:11.133Z,68.83
2022-08-07T01:10:06.398Z,68.61
2022-08-07T01:12:29.766Z,68.43
2022-08-07T01:15:01.772Z,68.41
2022-08-07T01:17:33.427Z,68.62
2022-08-07T01:20:16.638Z,68.26
2022-08-07T01:22:47.081Z,68.25
2022-08-07T01:25:54.230Z,68.66
2022-08-07T01:28:17.274Z,68.54
2022-08-07T01:30:51.364Z,68.85
2022-08-07T01:33:22.498Z,68.85
2022-08-07T01:35:54.316Z,68.93
2022-08-07T01:38:36.254Z,68.49
2022-08-07T01:41:13.807Z,68.75
2022-08-07T01:43:55.335Z,68.24
2022-08-07T01:46:22.727Z,68.52
2022-08-07T01:48:51.011Z,68.31
2022-08-07T01:52:01.560Z,68.15
2022-08-07T01:54:33.111Z,68.33
2022-08-07T01:57:24.353Z,68.85
2022-08-07T02:00:13.058Z,68.61
2022-08-07T02:03:18.524Z,68.58
2022-08-07T02:05:59.378Z,68.82
2022-08-07T02:08:29.694Z,68.63
2022-08-07T02:10:59.775Z,68.80
2022-08-07T02:13:58.193Z,69.14
2022-08-07T02:16:28.569Z,69.31
2022-08-07T02:20:06.624Z,69.37
2022-08-07T02:21:58.570Z,69.03
2022-08-07T02:24:29.297Z,69.47
2022-08-07T02:27:01.188Z,69.41
2022-08-07T02:29:34.385Z,69.20
2022-08-07T02:32:05.747Z,69.54
2022-08-07T02:34:51.110Z,69.46
2022-08-07T02:37:21.139Z,69.40
2022-08-07T02:40:02.008Z,68.75
2022-08-07T02:42:38.866Z,68.91
2022-08-07T02:45:20.670Z,69.00
2022-08-07T02:47:59.842Z,68.46
2022-08-07T02:50:37.003Z,69.18
2022-08-07T02:53:10.882Z,69.88
2022-08-07T02:56:02.451Z,69.29
2022-08-07T02:58:35.200Z,69.21
2022-08-07T03:01:06.299Z,69.22
2022-08-07T03:03:49.683Z,69.26
2022-08-07T03:06:26.104Z,68.93
2022-08-07T03:09:02.658Z,68.78
2022-08-07T03:11:32.967Z,68.96
2022-08-07T03:14:07.749Z,69.02
2022-08-07T03:16:36.231Z,68.94
2022-08-07T03:19:08.374Z,68.93
2022-08-07T03:21:37.497Z,69.01
2022-08-07T03:24:19.990Z,68.96
2022-08-07T03:26:58.444Z,69.03
2022-08-07T03:29:37.399Z,69.03
2022-08-07T03:32:13.146Z,68.90
2022-08-07T03:35:16.834Z,68.78
2022-08-07T03:37:54.186Z,68.84
2022-08-07T03:40:36.086Z,68.84
2022-08-07T03:43:14.799Z,68.71
2022-08-07T03:45:49.631Z,68.63
2022-08-07T03:48:22.138Z,68.18
2022-08-07T03:50:55.724Z,68.22
2022-08-07T03:54:00.557Z,68.34
2022-08-07T03:56:33.619Z,69.12
2022-08-07T03:59:10.001Z,69.63
2022-08-07T04:01:46.324Z,69.14
2022-08-07T04:04:17.978Z,69.30
2022-08-07T04:06:50.876Z,69.21
2022-08-07T04:09:23.009Z,70.09
2022-08-07T04:12:24.441Z,69.29
2022-08-07T04:14:47.761Z,69.24
2022-08-07T04:17:21.573Z,68.23
2022-08-07T04:19:54.852Z,69.96
2022-08-07T04:22:29.549Z,69.65
2022-08-07T04:25:02.046Z,69.56
2022-08-07T04:27:35.916Z,69.29
2022-08-07T04:30:35.802Z,67.64
2022-08-07T04:33:15.393Z,66.74
2022-08-07T04:35:51.116Z,66.26
2022-08-07T04:38:24.982Z,65.83
2022-08-07T04:40:56.793Z,66.16
2022-08-07T04:44:10.325Z,65.69
2022-08-07T04:46:34.731Z,65.09
2022-08-07T04:49:24.368Z,65.44
2022-08-07T04:52:08.400Z,64.63
2022-08-07T04:54:50.898Z,65.48
2022-08-07T04:58:12.004Z,65.78
2022-08-07T05:00:43.179Z,65.95
2022-08-07T05:04:00.234Z,65.49
2022-08-07T05:07:19.454Z,65.28
2022-08-07T05:10:04.848Z,61.85
2022-08-07T05:12:51.376Z,57.80
2022-08-07T05:15:27.464Z,52.79
2022-08-07T05:18:08.549Z,48.21
2022-08-07T05:20:43.935Z,44.81
2022-08-07T05:23:16.689Z,42.52
2022-08-07T05:26:10.549Z,41.96
2022-08-07T05:28:36.541Z,41.62
2022-08-07T05:31:14.643Z,43.30
2022-08-07T05:34:01.292Z,41.95
2022-08-07T05:36:35.609Z,42.85
2022-08-07T05:39:09.236Z,40.53
2022-08-07T05:42:02.238Z,36.95
2022-08-07T05:44:34.109Z,36.08
2022-08-07T05:47:18.231Z,32.98
2022-08-07T05:49:50.864Z,33.81
2022-08-07T05:52:32.405Z,30.01
2022-08-07T05:56:01.992Z,27.15
2022-08-07T05:58:16.720Z,27.90
2022-08-07T06:00:50.916Z,27.18
2022-08-07T06:03:20.456Z,27.09
2022-08-07T06:05:56.398Z,28.48
2022-08-07T06:08:30.316Z,29.57
2022-08-07T06:11:03.819Z,30.13
2022-08-07T06:14:11.417Z,30.04
2022-08-07T06:16:22.963Z,30.96
2022-08-07T06:18:57.043Z,31.47
2022-08-07T06:22:16.781Z,32.61
2022-08-07T06:24:38.566Z,31.66
2022-08-07T06:27:59.891Z,28.47
2022-08-07T06:30:32.440Z,30.21
2022-08-07T06:33:01.418Z,30.51
2022-08-07T06:35:30.648Z,28.59
2022-08-07T06:38:20.262Z,27.62
2022-08-07T06:40:52.995Z,27.32
2022-08-07T06:43:25.174Z,27.38
2022-08-07T06:46:15.670Z,26.00
2022-08-07T06:48:58.714Z,25.48
2022-08-07T06:51:33.888Z,25.64
2022-08-07T06:55:30.317Z,26.36
2022-08-07T06:56:56.349Z,27.79
2022-08-07T07:00:13.437Z,29.73
2022-08-07T07:02:54.613Z,28.76
2022-08-07T07:06:05.763Z,28.01
2022-08-07T07:08:06.921Z,28.89
2022-08-07T07:10:37.170Z,28.50
2022-08-07T07:13:14.882Z,27.47
2022-08-07T07:18:50.490Z,28.53
2022-08-07T07:22:05.373Z,28.64
2022-08-07T07:24:17.618Z,27.29
2022-08-07T07:26:49.650Z,25.67
2022-08-07T07:29:56.216Z,25.08
2022-08-07T07:32:14.603Z,27.10
2022-08-07T07:34:48.636Z,27.89
2022-08-07T07:37:43.878Z,27.39
2022-08-07T07:40:10.379Z,28.42
2022-08-07T07:42:47.146Z,28.39
2022-08-07T07:45:24.656Z,27.95
2022-08-07T07:48:13.157Z,28.46
2022-08-07T07:51:07.940Z,27.14
2022-08-07T07:53:51.801Z,28.41
2022-08-07T07:56:30.296Z,28.83
2022-08-07T07:59:03.058Z,29.12
2022-08-07T08:02:04.032Z,28.07
2022-08-07T08:04:28.886Z,28.05
2022-08-07T08:06:56.532Z,28.15
2022-08-07T08:09:30.029Z,28.84
2022-08-07T08:12:02.487Z,29.16
2022-08-07T08:14:34.151Z,28.93
2022-08-07T08:17:55.676Z,28.76
2022-08-07T08:20:17.175Z,26.57
2022-08-07T08:23:03.557Z,29.40
2022-08-07T08:25:56.719Z,30.18
2022-08-07T08:28:38.703Z,31.62
2022-08-07T08:31:14.594Z,30.20
2022-08-07T08:33:49.613Z,30.06
2022-08-07T08:36:25.570Z,30.54
2022-08-07T08:39:01.884Z,32.80
2022-08-07T08:41:58.386Z,32.12
2022-08-07T08:44:44.379Z,32.52
2022-08-07T08:47:47.341Z,32.16
2022-08-07T08:50:39.172Z,32.82
2022-08-07T08:53:33.833Z,32.02
2022-08-07T08:56:10.874Z,34.31
2022-08-07T08:59:00.193Z,31.85
2022-08-07T09:01:58.336Z,33.21
2022-08-07T09:04:51.266Z,33.34
2022-08-07T09:07:46.142Z,34.59
2022-08-07T09:10:29.931Z,34.47
2022-08-07T09:13:11.049Z,36.56
2022-08-07T09:16:21.760Z,37.20
2022-08-07T09:19:53.218Z,39.38
2022-08-07T09:24:33.017Z,40.15
2022-08-07T09:25:54.629Z,41.70
2022-08-07T09:30:05.238Z,41.86
2022-08-07T09:32:17.259Z,41.79
2022-08-07T09:36:05.384Z,43.54
2022-08-07T09:38:31.766Z,44.23
2022-08-07T09:41:24.373Z,45.82
2022-08-07T09:44:19.324Z,46.71
2022-08-07T09:48:00.441Z,46.28
2022-08-07T09:50:44.088Z,47.49
2022-08-07T09:53:13.234Z,48.19
2022-08-07T09:56:03.817Z,48.66
2022-08-07T09:59:07.758Z,49.97
2022-08-07T10:02:14.864Z,49.94
2022-08-07T10:05:00.699Z,49.90
2022-08-07T10:07:55.063Z,49.38
2022-08-07T10:11:07.726Z,50.81
2022-08-07T10:14:02.873Z,50.94
2022-08-07T10:16:59.564Z,50.61
2022-08-07T10:19:49.443Z,50.56
2022-08-07T10:22:36.795Z,49.96
2022-08-07T10:25:43.136Z,52.31
2022-08-07T10:28:34.223Z,53.58
2022-08-07T10:31:35.856Z,52.76
2022-08-07T10:34:33.888Z,53.75
2022-08-07T10:37:14.622Z,54.68
2022-08-07T10:40:12.660Z,54.60
2022-08-07T10:43:07.607Z,55.49
2022-08-07T10:45:44.731Z,54.66
2022-08-07T10:48:36.475Z,55.80
2022-08-07T10:51:16.867Z,54.90
2022-08-07T10:54:19.960Z,55.01
2022-08-07T10:57:16.922Z,55.82
2022-08-07T11:00:36.154Z,56.49
2022-08-07T11:03:24.027Z,56.90
2022-08-07T11:06:42.239Z,57.05
2022-08-07T11:10:09.964Z,57.65
2022-08-07T11:12:31.693Z,57.16
2022-08-07T11:15:09.604Z,57.33
2022-08-07T11:18:03.698Z,57.89
2022-08-07T11:20:43.473Z,56.23
2022-08-07T11:23:48.340Z,58.10
2022-08-07T11:26:33.992Z,55.84
2022-08-07T11:29:13.264Z,57.02
2022-08-07T11:31:58.684Z,57.61
2022-08-07T11:34:52.591Z,57.88
2022-08-07T11:37:58.088Z,58.17
2022-08-07T11:40:53.086Z,59.03
2022-08-07T11:43:54.535Z,60.06
2022-08-07T11:50:18.678Z,59.72
2022-08-07T11:52:57.768Z,58.69
2022-08-07T11:56:09.081Z,57.85
2022-08-07T12:00:08.973Z,58.72
2022-08-07T12:02:37.684Z,59.12
2022-08-07T12:05:28.251Z,57.31
2022-08-07T12:08:05.621Z,58.65
2022-08-07T12:11:08.145Z,59.04
2022-08-07T12:13:58.433Z,58.72
2022-08-07T12:16:30.841Z,58.94
2022-08-07T12:19:14.700Z,59.35
2022-08-07T12:22:39.608Z,60.96
2022-08-07T12:26:22.362Z,62.51
2022-08-07T12:28:44.879Z,62.57
2022-08-07T12:31:23.514Z,62.76
2022-08-07T12:33:56.147Z,63.40
2022-08-07T12:36:33.497Z,64.11
2022-08-07T12:39:09.390Z,63.63
2022-08-07T12:41:59.811Z,61.64
2022-08-07T12:44:30.619Z,60.39
2022-08-07T12:47:06.506Z,60.36
2022-08-07T12:49:51.422Z,58.95
2022-08-07T12:52:47.914Z,58.71
2022-08-07T12:55:41.442Z,59.45
2022-08-07T12:58:22.149Z,58.25
2022-08-07T13:01:23.166Z,55.72
2022-08-07T13:04:36.937Z,56.64
2022-08-07T13:08:12.512Z,55.15
2022-08-07T13:10:43.837Z,55.14
2022-08-07T13:14:03.568Z,50.63
2022-08-07T13:16:41.281Z,51.42
2022-08-07T13:19:11.412Z,53.29
2022-08-07T13:22:34.793Z,56.82
2022-08-07T13:25:09.480Z,56.91
2022-08-07T13:28:12.514Z,55.96
2022-08-07T13:30:52.172Z,56.89
2022-08-07T13:34:34.583Z,57.32
2022-08-07T13:36:47.954Z,60.72
2022-08-07T13:40:33.320Z,58.30
2022-08-07T13:42:25.065Z,58.67
2022-08-07T13:45:40.592Z,61.04
2022-08-07T13:48:06.286Z,62.85
2022-08-07T13:50:44.455Z,62.54
2022-08-07T13:53:24.014Z,62.34
2022-08-07T13:55:54.644Z,61.61
2022-08-07T13:58:56.374Z,61.90
2022-08-07T14:01:26.617Z,63.14
2022-08-07T14:04:07.174Z,62.21
2022-08-07T14:06:43.693Z,61.07
2022-08-07T14:10:03.102Z,61.46
2022-08-07T14:12:29.964Z,60.95
2022-08-07T14:15:10.156Z,61.36
2022-08-07T14:18:23.567Z,60.39
2022-08-07T14:20:43.775Z,61.09
2022-08-07T14:23:31.639Z,61.26
2022-08-07T14:26:28.142Z,59.39
2022-08-07T14:29:02.022Z,59.88
2022-08-07T14:31:43.459Z,60.42
2022-08-07T14:34:29.517Z,61.37
2022-08-07T14:37:02.029Z,61.91
2022-08-07T14:40:16.664Z,63.10
2022-08-07T14:45:21.795Z,62.06
2022-08-07T14:47:52.923Z,61.38
2022-08-07T14:50:28.159Z,60.64
2022-08-07T14:53:07.489Z,60.08
2022-08-07T14:55:39.323Z,59.93
2022-08-07T14:58:30.025Z,59.99
2022-08-07T15:00:59.491Z,59.09
2022-08-07T15:03:51.411Z,59.48
2022-08-07T15:06:25.792Z,60.62
2022-08-07T15:08:56.010Z,61.53
2022-08-07T15:11:53.227Z,62.18
2022-08-07T15:14:25.438Z,61.72
2022-08-07T15:20:31.053Z,62.01
2022-08-07T15:22:51.571Z,62.84
2022-08-07T15:25:36.522Z,63.36
2022-08-07T15:28:34.199Z,64.20
2022-08-07T15:31:05.256Z,64.94
2022-08-07T15:33:35.978Z,65.82
2022-08-07T15:36:07.890Z,66.35
2022-08-07T15:38:58.684Z,65.97
2022-08-07T15:42:46.784Z,65.55
2022-08-07T15:44:21.320Z,65.75
2022-08-07T15:52:51.761Z,66.79
2022-08-07T15:55:23.188Z,66.72
2022-08-07T15:57:53.574Z,66.67
2022-08-07T16:00:34.762Z,67.27
2022-08-07T16:03:21.361Z,66.31
2022-08-07T16:05:52.932Z,66.72
2022-08-07T16:08:31.422Z,68.42
2022-08-07T16:11:27.204Z,69.33
2022-08-07T16:14:03.162Z,70.73
2022-08-07T16:16:47.924Z,71.95
2022-08-07T16:19:42.136Z,72.90
2022-08-07T16:22:30.177Z,74.45
2022-08-07T16:25:22.742Z,74.81
2022-08-07T16:30:05.490Z,75.14
2022-08-07T16:32:03.819Z,74.67
2022-08-07T16:34:48.443Z,74.29
2022-08-07T16:38:06.318Z,75.95
2022-08-07T16:40:32.194Z,75.02
2022-08-07T16:44:06.157Z,75.00
2022-08-07T16:47:04.852Z,74.80
2022-08-07T16:50:27.839Z,75.37
2022-08-07T16:52:57.593Z,74.16
2022-08-07T16:55:51.126Z,74.39
2022-08-07T16:59:02.287Z,75.89
2022-08-07T17:01:41.222Z,76.50
2022-08-07T17:04:58.083Z,75.86
2022-08-07T17:07:55.398Z,74.51
2022-08-07T17:10:54.396Z,73.97
2022-08-07T17:13:41.577Z,74.17
2022-08-07T17:16:39.900Z,75.12
2022-08-07T17:20:01.095Z,76.06
2022-08-07T17:22:37.971Z,77.89
2022-08-07T17:25:47.664Z,78.47
2022-08-07T17:28:20.202Z,79.60
2022-08-07T17:31:16.137Z,80.08
2022-08-07T17:34:15.341Z,79.58
2022-08-07T17:37:00.024Z,78.55
2022-08-07T17:40:03.106Z,76.97
2022-08-07T17:42:59.342Z,75.34
2022-08-07T17:45:34.886Z,74.39
2022-08-07T17:48:08.668Z,73.25
2022-08-07T17:50:58.363Z,73.21
2022-08-07T17:54:00.520Z,72.72
2022-08-07T17:56:35.080Z,71.45
2022-08-07T17:59:16.968Z,70.97
2022-08-07T18:01:56.755Z,69.11
2022-08-07T18:04:49.348Z,68.04
2022-08-07T18:07:43.669Z,67.83
2022-08-07T18:10:29.027Z,67.34
2022-08-07T18:13:11.099Z,66.56
2022-08-07T18:15:58.817Z,66.31
2022-08-07T18:21:03.976Z,66.74
2022-08-07T18:22:00.393Z,66.50
2022-08-07T18:24:53.517Z,66.87
2022-08-07T18:27:39.340Z,66.59
2022-08-07T18:30:31.502Z,67.35
2022-08-07T18:33:29.435Z,69.12
2022-08-07T18:36:32.821Z,70.39
2022-08-07T18:40:08.172Z,70.28
2022-08-07T18:42:27.536Z,69.96
2022-08-07T18:45:43.813Z,70.40
2022-08-07T18:50:04.739Z,71.08
2022-08-07T18:51:14.886Z,71.74
2022-08-07T18:54:30.538Z,72.10
2022-08-07T18:57:40.095Z,72.80
2022-08-07T19:00:33.342Z,72.57
2022-08-07T19:03:17.419Z,72.29
2022-08-07T19:06:03.251Z,73.22
2022-08-07T19:08:58.884Z,73.98
2022-08-07T19:12:04.042Z,74.87
2022-08-07T19:15:03.180Z,75.13
2022-08-07T19:18:05.242Z,75.54
2022-08-07T19:21:08.931Z,76.34
2022-08-07T19:23:57.900Z,76.43
2022-08-07T19:27:09.240Z,76.82
2022-08-07T19:31:00.764Z,76.77
2022-08-07T19:32:26.442Z,76.43
2022-08-07T19:35:01.676Z,76.52
2022-08-07T19:37:55.672Z,76.56
2022-08-07T19:40:31.505Z,76.48
2022-08-07T19:43:10.744Z,77.10
2022-08-07T19:46:07.498Z,77.09
2022-08-07T19:48:53.545Z,76.55
2022-08-07T19:51:52.902Z,76.48
2022-08-07T19:54:34.189Z,76.22
2022-08-07T19:58:03.121Z,76.41
2022-08-07T20:00:01.961Z,76.43
2022-08-07T20:02:51.920Z,76.41
2022-08-07T20:05:27.901Z,75.91
2022-08-07T20:08:02.407Z,75.94
2022-08-07T20:10:55.440Z,75.57
2022-08-07T20:13:31.957Z,75.34
2022-08-07T20:16:03.123Z,74.75
2022-08-07T20:18:34.647Z,73.79
2022-08-07T20:21:21.023Z,73.63
2022-08-07T20:23:57.915Z,73.73
2022-08-07T20:26:45.283Z,73.63
2022-08-07T20:29:48.374Z,73.89
2022-08-07T20:32:22.259Z,74.22
2022-08-07T20:34:54.902Z,74.31
2022-08-07T20:37:25.640Z,74.59
2022-08-07T20:40:03.769Z,75.13
2022-08-07T20:42:35.220Z,74.99
2022-08-07T20:45:32.874Z,74.67
2022-08-07T20:47:57.784Z,74.54
2022-08-07T20:50:30.517Z,74.38
2022-08-07T20:52:58.763Z,74.30
2022-08-07T20:55:26.503Z,74.00
2022-08-07T20:58:03.482Z,73.60
2022-08-07T21:00:42.980Z,73.39
2022-08-07T21:03:16.402Z,73.43
2022-08-07T21:05:54.501Z,73.39
2022-08-07T21:08:36.968Z,73.83
2022-08-07T21:11:11.771Z,72.90
2022-08-07T21:14:16.269Z,72.64
2022-08-07T21:17:06.856Z,71.91
2022-08-07T21:19:51.837Z,71.49
2022-08-07T21:22:34.791Z,70.96
2022-08-07T21:25:23.371Z,69.41
2022-08-07T21:28:16.779Z,67.99
2022-08-07T21:31:49.264Z,64.29
2022-08-07T21:34:26.658Z,65.32
2022-08-07T21:37:04.060Z,66.02
2022-08-07T21:39:48.600Z,66.68
2022-08-07T21:42:48.649Z,67.07
2022-08-07T21:46:09.179Z,66.26
2022-08-07T21:48:43.803Z,65.11
2022-08-07T21:51:32.221Z,64.59
2022-08-07T21:54:10.078Z,64.64
2022-08-07T21:57:00.267Z,65.01
2022-08-07T22:00:02.616Z,64.08
2022-08-07T22:02:41.654Z,64.12
2022-08-07T22:05:43.844Z,63.51
2022-08-07T22:08:06.048Z,63.98
2022-08-07T22:10:42.276Z,64.47
2022-08-07T22:13:14.481Z,64.72
2022-08-07T22:16:45.110Z,62.25
2022-08-07T22:18:58.816Z,57.35
2022-08-07T22:22:04.560Z,56.94
2022-08-07T22:24:43.570Z,57.14
2022-08-07T22:27:21.158Z,56.40
2022-08-07T22:30:12.404Z,55.64
2022-08-07T22:33:02.881Z,55.56
2022-08-07T22:35:42.835Z,56.08
2022-08-07T22:38:37.925Z,57.49
2022-08-07T22:42:04.175Z,59.38
2022-08-07T22:44:25.176Z,61.83
2022-08-07T22:47:16.722Z,62.43
2022-08-07T22:50:03.434Z,63.49
2022-08-07T22:52:59.037Z,64.46
2022-08-07T22:56:04.447Z,65.77
2022-08-07T22:59:18.419Z,66.84
2022-08-07T23:02:16.541Z,67.85
2022-08-07T23:06:10.153Z,68.40
2022-08-07T23:08:24.240Z,69.39
2022-08-07T23:11:13.002Z,69.90
2022-08-07T23:14:16.434Z,70.22
2022-08-07T23:16:58.934Z,70.46
2022-08-07T23:20:07.648Z,70.32
2022-08-07T23:22:53.640Z,70.27
2022-08-07T23:25:28.287Z,70.58
2022-08-07T23:28:21.192Z,70.27
2022-08-07T23:31:11.284Z,70.82
2022-08-07T23:34:36.301Z,70.36
2022-08-07T23:36:54.824Z,70.59
2022-08-07T23:39:55.377Z,70.16
2022-08-07T23:42:40.899Z,69.98
2022-08-07T23:45:33.466Z,70.26
2022-08-07T23:48:21.582Z,69.59
2022-08-07T23:51:03.746Z,69.00
2022-08-07T23:53:53.684Z,68.76
2022-08-07T23:56:34.934Z,68.44
